sensor_id;sensor_type;location;lat;lon;timestamp;temperature;humidity
15231;DHT22;32569;51.762;8.564;2023-12-22T00:00:54;5.90;99.90
15231;DHT22;32569;51.762;8.564;2023-12-22T00:03:20;5.90;99.90
15231;DHT22;32569;51.762;8.564;2023-12-22T00:05:49;5.90;99.90
15231;DHT22;32569;51.762;8.564;2023-12-22T00:08:15;5.80;99.90
15231;DHT22;32569;51.762;8.564;2023-12-22T00:10:43;5.80;99.90
15231;DHT22;32569;51.762;8.564;2023-12-22T00:13:13;5.60;99.90
15231;DHT22;32569;51.762;8.564;2023-12-22T00:15:42;5.50;99.90
15231;DHT22;32569;51.762;8.564;2023-12-22T00:18:10;5.40;99.90
15231;DHT22;32569;51.762;8.564;2023-12-22T00:20:36;5.40;99.90
15231;DHT22;32569;51.762;8.564;2023-12-22T00:23:03;5.40;99.90
15231;DHT22;32569;51.762;8.564;2023-12-22T00:25:30;5.40;99.90
15231;DHT22;32569;51.762;8.564;2023-12-22T00:28:01;5.50;99.90
15231;DHT22;32569;51.762;8.564;2023-12-22T00:30:28;5.50;99.90
15231;DHT22;32569;51.762;8.564;2023-12-22T00:32:54;5.50;99.90
15231;DHT22;32569;51.762;8.564;2023-12-22T00:35:23;5.50;99.90
15231;DHT22;32569;51.762;8.564;2023-12-22T00:37:50;5.50;99.90
15231;DHT22;32569;51.762;8.564;2023-12-22T00:40:18;5.50;99.90
15231;DHT22;32569;51.762;8.564;2023-12-22T00:42:45;5.50;99.90
15231;DHT22;32569;51.762;8.564;2023-12-22T00:45:13;5.50;99.90
15231;DHT22;32569;51.762;8.564;2023-12-22T00:47:39;5.50;99.90
15231;DHT22;32569;51.762;8.564;2023-12-22T00:50:06;5.40;99.90
15231;DHT22;32569;51.762;8.564;2023-12-22T00:52:33;5.40;99.90
15231;DHT22;32569;51.762;8.564;2023-12-22T00:55:03;5.40;99.90
15231;DHT22;32569;51.762;8.564;2023-12-22T00:57:30;5.40;99.90
15231;DHT22;32569;51.762;8.564;2023-12-22T00:59:56;5.40;99.90
15231;DHT22;32569;51.762;8.564;2023-12-22T01:02:24;5.40;99.90
15231;DHT22;32569;51.762;8.564;2023-12-22T01:04:51;5.40;99.90
15231;DHT22;32569;51.762;8.564;2023-12-22T01:07:20;5.40;99.90
15231;DHT22;32569;51.762;8.564;2023-12-22T01:09:50;5.40;99.90
15231;DHT22;32569;51.762;8.564;2023-12-22T01:12:16;5.40;99.90
15231;DHT22;32569;51.762;8.564;2023-12-22T01:14:48;5.40;99.90
15231;DHT22;32569;51.762;8.564;2023-12-22T01:17:20;5.30;99.90
15231;DHT22;32569;51.762;8.564;2023-12-22T01:19:48;5.30;99.90
15231;DHT22;32569;51.762;8.564;2023-12-22T01:22:14;5.40;99.90
15231;DHT22;32569;51.762;8.564;2023-12-22T01:24:41;5.40;99.90
15231;DHT22;32569;51.762;8.564;2023-12-22T01:27:08;5.40;99.90
15231;DHT22;32569;51.762;8.564;2023-12-22T01:29:35;5.40;99.90
15231;DHT22;32569;51.762;8.564;2023-12-22T01:32:02;5.40;99.90
15231;DHT22;32569;51.762;8.564;2023-12-22T01:34:29;5.40;99.90
15231;DHT22;32569;51.762;8.564;2023-12-22T01:36:57;5.50;99.90
15231;DHT22;32569;51.762;8.564;2023-12-22T01:39:24;5.50;99.90
15231;DHT22;32569;51.762;8.564;2023-12-22T01:41:50;5.50;99.90
15231;DHT22;32569;51.762;8.564;2023-12-22T01:44:19;5.50;99.90
15231;DHT22;32569;51.762;8.564;2023-12-22T01:46:46;5.40;99.90
15231;DHT22;32569;51.762;8.564;2023-12-22T01:49:13;5.30;99.90
15231;DHT22;32569;51.762;8.564;2023-12-22T01:51:41;5.20;99.90
15231;DHT22;32569;51.762;8.564;2023-12-22T01:54:09;5.20;99.90
15231;DHT22;32569;51.762;8.564;2023-12-22T01:56:36;5.30;99.90
15231;DHT22;32569;51.762;8.564;2023-12-22T01:59:03;5.30;99.90
15231;DHT22;32569;51.762;8.564;2023-12-22T02:01:31;5.40;99.90
15231;DHT22;32569;51.762;8.564;2023-12-22T02:03:59;5.40;99.90
15231;DHT22;32569;51.762;8.564;2023-12-22T02:06:30;5.40;99.90
15231;DHT22;32569;51.762;8.564;2023-12-22T02:09:00;5.40;99.90
15231;DHT22;32569;51.762;8.564;2023-12-22T02:11:29;5.50;99.90
15231;DHT22;32569;51.762;8.564;2023-12-22T02:13:56;5.50;99.90
15231;DHT22;32569;51.762;8.564;2023-12-22T02:16:28;5.50;99.90
15231;DHT22;32569;51.762;8.564;2023-12-22T02:18:59;5.50;99.90
15231;DHT22;32569;51.762;8.564;2023-12-22T02:21:30;5.50;99.90
15231;DHT22;32569;51.762;8.564;2023-12-22T02:24:01;5.50;99.90
15231;DHT22;32569;51.762;8.564;2023-12-22T02:26:33;5.50;99.90
15231;DHT22;32569;51.762;8.564;2023-12-22T02:29:04;5.50;99.90
15231;DHT22;32569;51.762;8.564;2023-12-22T02:31:35;5.50;99.90
15231;DHT22;32569;51.762;8.564;2023-12-22T02:34:05;5.50;99.90
15231;DHT22;32569;51.762;8.564;2023-12-22T02:36:35;5.50;99.90
15231;DHT22;32569;51.762;8.564;2023-12-22T02:39:04;5.50;99.90
15231;DHT22;32569;51.762;8.564;2023-12-22T02:41:32;5.50;99.90
15231;DHT22;32569;51.762;8.564;2023-12-22T02:43:59;5.50;99.90
15231;DHT22;32569;51.762;8.564;2023-12-22T02:46:26;5.40;99.90
15231;DHT22;32569;51.762;8.564;2023-12-22T02:48:53;5.40;99.90
15231;DHT22;32569;51.762;8.564;2023-12-22T02:51:22;5.40;99.90
15231;DHT22;32569;51.762;8.564;2023-12-22T02:53:49;5.40;99.90
15231;DHT22;32569;51.762;8.564;2023-12-22T02:56:17;5.40;99.90
15231;DHT22;32569;51.762;8.564;2023-12-22T02:58:44;5.40;99.90
15231;DHT22;32569;51.762;8.564;2023-12-22T03:01:12;5.40;99.90
15231;DHT22;32569;51.762;8.564;2023-12-22T03:03:42;5.40;99.90
15231;DHT22;32569;51.762;8.564;2023-12-22T03:06:09;5.40;99.90
15231;DHT22;32569;51.762;8.564;2023-12-22T03:08:35;5.40;99.90
15231;DHT22;32569;51.762;8.564;2023-12-22T03:11:02;5.30;99.90
15231;DHT22;32569;51.762;8.564;2023-12-22T03:13:30;5.40;99.90
15231;DHT22;32569;51.762;8.564;2023-12-22T03:15:57;5.40;99.90
15231;DHT22;32569;51.762;8.564;2023-12-22T03:18:23;5.30;99.90
15231;DHT22;32569;51.762;8.564;2023-12-22T03:20:50;5.40;99.90
15231;DHT22;32569;51.762;8.564;2023-12-22T03:23:22;5.40;99.90
15231;DHT22;32569;51.762;8.564;2023-12-22T03:25:49;5.40;99.90
15231;DHT22;32569;51.762;8.564;2023-12-22T03:28:15;5.40;99.90
15231;DHT22;32569;51.762;8.564;2023-12-22T03:30:43;5.40;99.90
15231;DHT22;32569;51.762;8.564;2023-12-22T03:33:10;5.40;99.90
15231;DHT22;32569;51.762;8.564;2023-12-22T03:35:39;5.40;99.90
15231;DHT22;32569;51.762;8.564;2023-12-22T03:38:06;5.30;99.90
15231;DHT22;32569;51.762;8.564;2023-12-22T03:40:33;5.30;99.90
15231;DHT22;32569;51.762;8.564;2023-12-22T03:42:59;5.30;99.90
15231;DHT22;32569;51.762;8.564;2023-12-22T03:45:26;5.40;99.90
15231;DHT22;32569;51.762;8.564;2023-12-22T03:47:54;5.20;99.90
15231;DHT22;32569;51.762;8.564;2023-12-22T03:50:20;5.20;99.90
15231;DHT22;32569;51.762;8.564;2023-12-22T03:52:47;5.20;99.90
15231;DHT22;32569;51.762;8.564;2023-12-22T03:55:14;5.10;99.90
15231;DHT22;32569;51.762;8.564;2023-12-22T03:57:40;5.10;99.90
15231;DHT22;32569;51.762;8.564;2023-12-22T04:00:08;5.10;99.90
15231;DHT22;32569;51.762;8.564;2023-12-22T04:02:34;5.10;99.90
15231;DHT22;32569;51.762;8.564;2023-12-22T04:05:03;5.10;99.90
15231;DHT22;32569;51.762;8.564;2023-12-22T04:07:29;5.10;99.90
15231;DHT22;32569;51.762;8.564;2023-12-22T04:09:56;5.10;99.90
15231;DHT22;32569;51.762;8.564;2023-12-22T04:12:23;5.20;99.90
15231;DHT22;32569;51.762;8.564;2023-12-22T04:14:49;5.20;99.90
15231;DHT22;32569;51.762;8.564;2023-12-22T04:17:16;5.20;99.90
15231;DHT22;32569;51.762;8.564;2023-12-22T04:19:43;5.20;99.90
15231;DHT22;32569;51.762;8.564;2023-12-22T04:22:11;5.20;99.90
15231;DHT22;32569;51.762;8.564;2023-12-22T04:24:37;5.20;99.90
15231;DHT22;32569;51.762;8.564;2023-12-22T04:27:04;5.20;99.90
15231;DHT22;32569;51.762;8.564;2023-12-22T04:29:31;5.20;99.90
15231;DHT22;32569;51.762;8.564;2023-12-22T04:31:57;5.10;99.90
15231;DHT22;32569;51.762;8.564;2023-12-22T04:34:24;5.10;99.90
15231;DHT22;32569;51.762;8.564;2023-12-22T04:36:50;5.00;99.90
15231;DHT22;32569;51.762;8.564;2023-12-22T04:39:18;5.00;99.90
15231;DHT22;32569;51.762;8.564;2023-12-22T04:41:45;5.10;99.90
15231;DHT22;32569;51.762;8.564;2023-12-22T04:44:11;5.10;99.90
15231;DHT22;32569;51.762;8.564;2023-12-22T04:46:43;5.10;99.90
15231;DHT22;32569;51.762;8.564;2023-12-22T04:49:09;5.20;99.90
15231;DHT22;32569;51.762;8.564;2023-12-22T04:51:36;5.10;99.90
15231;DHT22;32569;51.762;8.564;2023-12-22T04:54:02;5.10;99.90
15231;DHT22;32569;51.762;8.564;2023-12-22T04:56:30;5.10;99.90
15231;DHT22;32569;51.762;8.564;2023-12-22T04:58:57;5.10;99.90
15231;DHT22;32569;51.762;8.564;2023-12-22T05:01:24;5.00;99.90
15231;DHT22;32569;51.762;8.564;2023-12-22T05:03:50;5.00;99.90
15231;DHT22;32569;51.762;8.564;2023-12-22T05:06:19;4.90;99.90
15231;DHT22;32569;51.762;8.564;2023-12-22T05:08:46;4.80;99.90
15231;DHT22;32569;51.762;8.564;2023-12-22T05:11:12;4.70;99.90
15231;DHT22;32569;51.762;8.564;2023-12-22T05:13:40;4.70;99.90
15231;DHT22;32569;51.762;8.564;2023-12-22T05:16:08;4.60;99.90
15231;DHT22;32569;51.762;8.564;2023-12-22T05:18:35;4.60;99.90
15231;DHT22;32569;51.762;8.564;2023-12-22T05:21:01;4.50;99.90
15231;DHT22;32569;51.762;8.564;2023-12-22T05:23:28;4.50;99.90
15231;DHT22;32569;51.762;8.564;2023-12-22T05:25:55;4.50;99.90
15231;DHT22;32569;51.762;8.564;2023-12-22T05:28:21;4.40;99.90
15231;DHT22;32569;51.762;8.564;2023-12-22T05:30:49;4.40;99.90
15231;DHT22;32569;51.762;8.564;2023-12-22T05:33:19;4.40;99.90
15231;DHT22;32569;51.762;8.564;2023-12-22T05:35:46;4.30;99.90
15231;DHT22;32569;51.762;8.564;2023-12-22T05:38:12;4.30;99.90
15231;DHT22;32569;51.762;8.564;2023-12-22T05:40:39;4.30;99.90
15231;DHT22;32569;51.762;8.564;2023-12-22T05:43:06;4.30;99.90
15231;DHT22;32569;51.762;8.564;2023-12-22T05:45:32;4.30;99.90
15231;DHT22;32569;51.762;8.564;2023-12-22T05:48:00;4.30;99.90
15231;DHT22;32569;51.762;8.564;2023-12-22T05:50:27;4.40;99.90
15231;DHT22;32569;51.762;8.564;2023-12-22T05:52:53;4.40;99.90
15231;DHT22;32569;51.762;8.564;2023-12-22T05:55:20;4.50;99.90
15231;DHT22;32569;51.762;8.564;2023-12-22T05:57:47;4.60;99.90
15231;DHT22;32569;51.762;8.564;2023-12-22T06:00:15;4.70;99.90
15231;DHT22;32569;51.762;8.564;2023-12-22T06:02:42;4.70;99.90
15231;DHT22;32569;51.762;8.564;2023-12-22T06:05:10;4.70;99.90
15231;DHT22;32569;51.762;8.564;2023-12-22T06:07:37;4.70;99.90
15231;DHT22;32569;51.762;8.564;2023-12-22T06:10:04;4.70;99.90
15231;DHT22;32569;51.762;8.564;2023-12-22T06:12:32;4.80;99.90
15231;DHT22;32569;51.762;8.564;2023-12-22T06:14:59;4.80;99.90
15231;DHT22;32569;51.762;8.564;2023-12-22T06:17:26;4.90;99.90
15231;DHT22;32569;51.762;8.564;2023-12-22T06:19:55;4.90;99.90
15231;DHT22;32569;51.762;8.564;2023-12-22T06:22:23;4.80;99.90
15231;DHT22;32569;51.762;8.564;2023-12-22T06:24:50;4.80;99.90
15231;DHT22;32569;51.762;8.564;2023-12-22T06:27:16;4.90;99.90
15231;DHT22;32569;51.762;8.564;2023-12-22T06:29:43;4.90;99.90
15231;DHT22;32569;51.762;8.564;2023-12-22T06:32:10;5.00;99.90
15231;DHT22;32569;51.762;8.564;2023-12-22T06:34:37;5.10;99.90
15231;DHT22;32569;51.762;8.564;2023-12-22T06:37:04;5.10;99.90
15231;DHT22;32569;51.762;8.564;2023-12-22T06:39:34;5.20;99.90
15231;DHT22;32569;51.762;8.564;2023-12-22T06:42:01;5.20;99.90
15231;DHT22;32569;51.762;8.564;2023-12-22T06:44:28;5.20;99.90
15231;DHT22;32569;51.762;8.564;2023-12-22T06:46:56;5.30;99.90
15231;DHT22;32569;51.762;8.564;2023-12-22T06:49:24;5.30;99.90
15231;DHT22;32569;51.762;8.564;2023-12-22T06:51:51;5.30;99.90
15231;DHT22;32569;51.762;8.564;2023-12-22T06:54:17;5.30;99.90
15231;DHT22;32569;51.762;8.564;2023-12-22T06:56:45;5.30;99.90
15231;DHT22;32569;51.762;8.564;2023-12-22T06:59:12;5.30;99.90
15231;DHT22;32569;51.762;8.564;2023-12-22T07:01:38;5.30;99.90
15231;DHT22;32569;51.762;8.564;2023-12-22T07:04:05;5.30;99.90
15231;DHT22;32569;51.762;8.564;2023-12-22T07:06:34;5.40;99.90
15231;DHT22;32569;51.762;8.564;2023-12-22T07:09:31;5.30;99.90
15231;DHT22;32569;51.762;8.564;2023-12-22T07:12:00;5.30;99.90
15231;DHT22;32569;51.762;8.564;2023-12-22T07:14:29;5.30;99.90
15231;DHT22;32569;51.762;8.564;2023-12-22T07:16:55;5.30;99.90
15231;DHT22;32569;51.762;8.564;2023-12-22T07:19:23;5.30;99.90
15231;DHT22;32569;51.762;8.564;2023-12-22T07:21:50;5.40;99.90
15231;DHT22;32569;51.762;8.564;2023-12-22T07:24:17;5.40;99.90
15231;DHT22;32569;51.762;8.564;2023-12-22T07:26:44;5.50;99.90
15231;DHT22;32569;51.762;8.564;2023-12-22T07:29:13;5.50;99.90
15231;DHT22;32569;51.762;8.564;2023-12-22T07:31:40;5.50;99.90
15231;DHT22;32569;51.762;8.564;2023-12-22T07:34:07;5.50;99.90
15231;DHT22;32569;51.762;8.564;2023-12-22T07:36:33;5.50;99.90
15231;DHT22;32569;51.762;8.564;2023-12-22T07:39:00;5.40;99.90
15231;DHT22;32569;51.762;8.564;2023-12-22T07:41:26;5.40;99.90
15231;DHT22;32569;51.762;8.564;2023-12-22T07:43:53;5.40;99.90
15231;DHT22;32569;51.762;8.564;2023-12-22T07:46:21;5.40;99.90
15231;DHT22;32569;51.762;8.564;2023-12-22T07:48:48;5.40;99.90
15231;DHT22;32569;51.762;8.564;2023-12-22T07:51:15;5.50;99.90
15231;DHT22;32569;51.762;8.564;2023-12-22T07:53:42;5.50;99.90
15231;DHT22;32569;51.762;8.564;2023-12-22T07:56:09;5.50;99.90
15231;DHT22;32569;51.762;8.564;2023-12-22T07:58:36;5.50;99.90
15231;DHT22;32569;51.762;8.564;2023-12-22T08:01:04;5.50;99.90
15231;DHT22;32569;51.762;8.564;2023-12-22T08:03:32;5.50;99.90
15231;DHT22;32569;51.762;8.564;2023-12-22T08:05:59;5.50;99.90
15231;DHT22;32569;51.762;8.564;2023-12-22T08:08:25;5.50;99.90
15231;DHT22;32569;51.762;8.564;2023-12-22T08:10:55;5.60;99.90
15231;DHT22;32569;51.762;8.564;2023-12-22T08:13:21;5.60;99.90
15231;DHT22;32569;51.762;8.564;2023-12-22T08:15:48;5.60;99.90
15231;DHT22;32569;51.762;8.564;2023-12-22T08:18:15;5.70;99.90
15231;DHT22;32569;51.762;8.564;2023-12-22T08:20:43;5.70;99.90
15231;DHT22;32569;51.762;8.564;2023-12-22T08:23:16;5.70;99.90
15231;DHT22;32569;51.762;8.564;2023-12-22T08:25:43;5.70;99.90
15231;DHT22;32569;51.762;8.564;2023-12-22T08:28:09;5.80;99.90
15231;DHT22;32569;51.762;8.564;2023-12-22T08:30:37;5.80;99.90
15231;DHT22;32569;51.762;8.564;2023-12-22T08:33:04;5.80;99.90
15231;DHT22;32569;51.762;8.564;2023-12-22T08:35:31;5.90;99.90
15231;DHT22;32569;51.762;8.564;2023-12-22T08:37:59;5.90;99.90
15231;DHT22;32569;51.762;8.564;2023-12-22T08:40:25;5.90;99.90
15231;DHT22;32569;51.762;8.564;2023-12-22T08:42:52;6.00;99.90
15231;DHT22;32569;51.762;8.564;2023-12-22T08:45:24;6.00;99.90
15231;DHT22;32569;51.762;8.564;2023-12-22T08:47:51;6.00;99.90
15231;DHT22;32569;51.762;8.564;2023-12-22T08:50:18;6.10;99.90
15231;DHT22;32569;51.762;8.564;2023-12-22T08:52:45;6.00;99.90
15231;DHT22;32569;51.762;8.564;2023-12-22T08:55:13;5.90;99.90
15231;DHT22;32569;51.762;8.564;2023-12-22T08:57:40;5.80;99.90
15231;DHT22;32569;51.762;8.564;2023-12-22T09:00:07;5.70;99.90
15231;DHT22;32569;51.762;8.564;2023-12-22T09:02:34;5.60;99.90
15231;DHT22;32569;51.762;8.564;2023-12-22T09:05:01;5.60;99.90
15231;DHT22;32569;51.762;8.564;2023-12-22T09:07:27;5.50;99.90
15231;DHT22;32569;51.762;8.564;2023-12-22T09:09:54;5.50;99.90
15231;DHT22;32569;51.762;8.564;2023-12-22T09:12:22;5.40;99.90
15231;DHT22;32569;51.762;8.564;2023-12-22T09:14:50;5.50;99.90
15231;DHT22;32569;51.762;8.564;2023-12-22T09:17:16;5.40;99.90
15231;DHT22;32569;51.762;8.564;2023-12-22T09:19:43;5.40;99.90
15231;DHT22;32569;51.762;8.564;2023-12-22T09:22:09;5.30;99.90
15231;DHT22;32569;51.762;8.564;2023-12-22T09:24:40;5.40;99.90
15231;DHT22;32569;51.762;8.564;2023-12-22T09:27:09;5.40;99.90
15231;DHT22;32569;51.762;8.564;2023-12-22T09:29:37;5.40;99.90
15231;DHT22;32569;51.762;8.564;2023-12-22T09:32:05;5.40;99.90
15231;DHT22;32569;51.762;8.564;2023-12-22T09:34:32;5.40;99.90
15231;DHT22;32569;51.762;8.564;2023-12-22T09:36:58;5.40;99.90
15231;DHT22;32569;51.762;8.564;2023-12-22T09:39:25;5.40;99.90
15231;DHT22;32569;51.762;8.564;2023-12-22T09:41:54;5.40;99.90
15231;DHT22;32569;51.762;8.564;2023-12-22T09:44:21;5.50;99.90
15231;DHT22;32569;51.762;8.564;2023-12-22T09:46:50;5.50;99.90
15231;DHT22;32569;51.762;8.564;2023-12-22T09:49:18;5.50;99.90
15231;DHT22;32569;51.762;8.564;2023-12-22T09:51:45;5.50;99.90
15231;DHT22;32569;51.762;8.564;2023-12-22T09:54:13;5.50;99.90
15231;DHT22;32569;51.762;8.564;2023-12-22T09:56:40;5.60;99.90
15231;DHT22;32569;51.762;8.564;2023-12-22T09:59:10;5.60;99.90
15231;DHT22;32569;51.762;8.564;2023-12-22T10:01:40;5.70;99.90
15231;DHT22;32569;51.762;8.564;2023-12-22T10:04:09;5.70;99.90
15231;DHT22;32569;51.762;8.564;2023-12-22T10:06:35;5.70;99.90
15231;DHT22;32569;51.762;8.564;2023-12-22T10:09:03;5.90;99.90
15231;DHT22;32569;51.762;8.564;2023-12-22T10:11:32;5.80;99.90
15231;DHT22;32569;51.762;8.564;2023-12-22T10:14:02;5.80;99.90
15231;DHT22;32569;51.762;8.564;2023-12-22T10:16:29;5.90;99.90
15231;DHT22;32569;51.762;8.564;2023-12-22T10:18:57;6.00;99.90
15231;DHT22;32569;51.762;8.564;2023-12-22T10:21:26;6.00;99.90
15231;DHT22;32569;51.762;8.564;2023-12-22T10:23:52;6.00;99.90
15231;DHT22;32569;51.762;8.564;2023-12-22T10:26:19;6.00;99.90
15231;DHT22;32569;51.762;8.564;2023-12-22T10:28:47;6.00;99.90
15231;DHT22;32569;51.762;8.564;2023-12-22T10:31:14;6.00;99.90
15231;DHT22;32569;51.762;8.564;2023-12-22T10:33:42;6.00;99.90
15231;DHT22;32569;51.762;8.564;2023-12-22T10:36:09;6.00;99.90
15231;DHT22;32569;51.762;8.564;2023-12-22T10:38:38;6.00;99.90
15231;DHT22;32569;51.762;8.564;2023-12-22T10:41:06;6.10;99.90
15231;DHT22;32569;51.762;8.564;2023-12-22T10:43:37;6.10;99.90
15231;DHT22;32569;51.762;8.564;2023-12-22T10:46:04;6.00;99.90
15231;DHT22;32569;51.762;8.564;2023-12-22T10:48:31;6.10;99.90
15231;DHT22;32569;51.762;8.564;2023-12-22T10:50:58;6.10;99.90
15231;DHT22;32569;51.762;8.564;2023-12-22T10:53:24;6.10;99.90
15231;DHT22;32569;51.762;8.564;2023-12-22T10:55:53;6.10;99.90
15231;DHT22;32569;51.762;8.564;2023-12-22T10:58:19;6.10;99.90
15231;DHT22;32569;51.762;8.564;2023-12-22T11:00:45;6.10;99.90
15231;DHT22;32569;51.762;8.564;2023-12-22T11:03:17;6.00;99.90
15231;DHT22;32569;51.762;8.564;2023-12-22T11:05:46;6.00;99.90
15231;DHT22;32569;51.762;8.564;2023-12-22T11:08:13;5.90;99.90
15231;DHT22;32569;51.762;8.564;2023-12-22T11:10:42;5.90;99.90
15231;DHT22;32569;51.762;8.564;2023-12-22T11:13:12;5.90;99.90
15231;DHT22;32569;51.762;8.564;2023-12-22T11:15:39;5.80;99.90
15231;DHT22;32569;51.762;8.564;2023-12-22T11:18:07;5.80;99.90
15231;DHT22;32569;51.762;8.564;2023-12-22T11:20:36;5.80;99.90
15231;DHT22;32569;51.762;8.564;2023-12-22T11:23:04;5.90;99.90
15231;DHT22;32569;51.762;8.564;2023-12-22T11:25:31;5.90;99.90
15231;DHT22;32569;51.762;8.564;2023-12-22T11:27:59;5.90;99.90
15231;DHT22;32569;51.762;8.564;2023-12-22T11:30:29;6.00;99.90
15231;DHT22;32569;51.762;8.564;2023-12-22T11:32:57;6.00;99.90
15231;DHT22;32569;51.762;8.564;2023-12-22T11:35:24;6.00;99.90
15231;DHT22;32569;51.762;8.564;2023-12-22T11:37:53;6.00;99.90
15231;DHT22;32569;51.762;8.564;2023-12-22T11:40:21;6.00;99.90
15231;DHT22;32569;51.762;8.564;2023-12-22T11:42:49;6.10;99.90
15231;DHT22;32569;51.762;8.564;2023-12-22T11:45:18;6.10;99.90
15231;DHT22;32569;51.762;8.564;2023-12-22T11:47:46;6.10;99.90
15231;DHT22;32569;51.762;8.564;2023-12-22T11:50:28;6.10;99.90
15231;DHT22;32569;51.762;8.564;2023-12-22T11:52:56;6.10;99.90
15231;DHT22;32569;51.762;8.564;2023-12-22T11:55:56;6.10;99.90
15231;DHT22;32569;51.762;8.564;2023-12-22T11:58:34;6.20;99.90
15231;DHT22;32569;51.762;8.564;2023-12-22T12:01:02;6.20;99.90
15231;DHT22;32569;51.762;8.564;2023-12-22T12:03:31;6.20;99.90
15231;DHT22;32569;51.762;8.564;2023-12-22T12:06:15;6.30;99.90
15231;DHT22;32569;51.762;8.564;2023-12-22T12:08:42;6.30;99.90
15231;DHT22;32569;51.762;8.564;2023-12-22T12:11:09;6.30;99.90
15231;DHT22;32569;51.762;8.564;2023-12-22T12:13:41;6.30;99.90
15231;DHT22;32569;51.762;8.564;2023-12-22T12:16:08;6.30;99.90
15231;DHT22;32569;51.762;8.564;2023-12-22T12:18:36;6.20;99.90
15231;DHT22;32569;51.762;8.564;2023-12-22T12:21:06;6.20;99.90
15231;DHT22;32569;51.762;8.564;2023-12-22T12:23:33;6.20;99.90
15231;DHT22;32569;51.762;8.564;2023-12-22T12:25:59;6.20;99.90
15231;DHT22;32569;51.762;8.564;2023-12-22T12:28:28;6.30;99.90
15231;DHT22;32569;51.762;8.564;2023-12-22T12:30:58;6.30;99.90
15231;DHT22;32569;51.762;8.564;2023-12-22T12:33:25;6.30;99.90
15231;DHT22;32569;51.762;8.564;2023-12-22T12:35:55;6.30;99.90
15231;DHT22;32569;51.762;8.564;2023-12-22T12:38:28;6.30;99.90
15231;DHT22;32569;51.762;8.564;2023-12-22T12:41:03;6.20;99.90
15231;DHT22;32569;51.762;8.564;2023-12-22T12:43:30;6.20;99.90
15231;DHT22;32569;51.762;8.564;2023-12-22T12:46:03;6.10;99.90
15231;DHT22;32569;51.762;8.564;2023-12-22T12:48:30;6.10;99.90
15231;DHT22;32569;51.762;8.564;2023-12-22T12:51:02;6.20;99.90
15231;DHT22;32569;51.762;8.564;2023-12-22T12:53:30;6.20;99.90
15231;DHT22;32569;51.762;8.564;2023-12-22T12:55:57;6.10;99.90
15231;DHT22;32569;51.762;8.564;2023-12-22T12:58:27;6.10;99.90
15231;DHT22;32569;51.762;8.564;2023-12-22T13:01:04;6.10;99.90
15231;DHT22;32569;51.762;8.564;2023-12-22T13:03:31;6.10;99.90
15231;DHT22;32569;51.762;8.564;2023-12-22T13:06:07;6.10;99.90
15231;DHT22;32569;51.762;8.564;2023-12-22T13:08:34;6.10;99.90
15231;DHT22;32569;51.762;8.564;2023-12-22T13:11:01;6.10;99.90
15231;DHT22;32569;51.762;8.564;2023-12-22T13:13:27;6.10;99.90
15231;DHT22;32569;51.762;8.564;2023-12-22T13:15:54;6.10;99.90
15231;DHT22;32569;51.762;8.564;2023-12-22T13:18:21;6.20;99.90
15231;DHT22;32569;51.762;8.564;2023-12-22T13:20:48;6.10;99.90
15231;DHT22;32569;51.762;8.564;2023-12-22T13:23:18;6.10;99.90
15231;DHT22;32569;51.762;8.564;2023-12-22T13:25:45;6.10;99.90
15231;DHT22;32569;51.762;8.564;2023-12-22T13:28:12;6.10;99.90
15231;DHT22;32569;51.762;8.564;2023-12-22T13:30:39;6.10;99.90
15231;DHT22;32569;51.762;8.564;2023-12-22T13:33:06;6.10;99.90
15231;DHT22;32569;51.762;8.564;2023-12-22T13:35:33;6.20;99.90
15231;DHT22;32569;51.762;8.564;2023-12-22T13:38:01;6.10;99.90
15231;DHT22;32569;51.762;8.564;2023-12-22T13:40:30;6.10;99.90
15231;DHT22;32569;51.762;8.564;2023-12-22T13:42:57;6.20;99.90
15231;DHT22;32569;51.762;8.564;2023-12-22T13:45:24;6.20;99.90
15231;DHT22;32569;51.762;8.564;2023-12-22T13:47:51;6.10;99.90
15231;DHT22;32569;51.762;8.564;2023-12-22T13:50:19;6.10;99.90
15231;DHT22;32569;51.762;8.564;2023-12-22T13:52:49;6.10;99.90
15231;DHT22;32569;51.762;8.564;2023-12-22T13:55:17;6.00;99.90
15231;DHT22;32569;51.762;8.564;2023-12-22T13:57:45;6.00;99.90
15231;DHT22;32569;51.762;8.564;2023-12-22T14:00:27;6.00;99.90
15231;DHT22;32569;51.762;8.564;2023-12-22T14:02:55;6.00;99.90
15231;DHT22;32569;51.762;8.564;2023-12-22T14:05:25;6.00;99.90
15231;DHT22;32569;51.762;8.564;2023-12-22T14:07:54;6.00;99.90
15231;DHT22;32569;51.762;8.564;2023-12-22T14:10:20;6.00;99.90
15231;DHT22;32569;51.762;8.564;2023-12-22T14:12:48;5.90;99.90
15231;DHT22;32569;51.762;8.564;2023-12-22T14:15:16;5.90;99.90
15231;DHT22;32569;51.762;8.564;2023-12-22T14:17:42;5.80;99.90
15231;DHT22;32569;51.762;8.564;2023-12-22T14:20:12;5.80;99.90
15231;DHT22;32569;51.762;8.564;2023-12-22T14:22:42;5.80;99.90
15231;DHT22;32569;51.762;8.564;2023-12-22T14:25:11;5.80;99.90
15231;DHT22;32569;51.762;8.564;2023-12-22T14:27:41;5.90;99.90
15231;DHT22;32569;51.762;8.564;2023-12-22T14:30:13;5.80;99.90
15231;DHT22;32569;51.762;8.564;2023-12-22T14:32:40;5.80;99.90
15231;DHT22;32569;51.762;8.564;2023-12-22T14:35:07;5.80;99.90
15231;DHT22;32569;51.762;8.564;2023-12-22T14:37:36;5.80;99.90
15231;DHT22;32569;51.762;8.564;2023-12-22T14:40:03;5.80;99.90
15231;DHT22;32569;51.762;8.564;2023-12-22T14:42:31;5.80;99.90
15231;DHT22;32569;51.762;8.564;2023-12-22T14:44:58;5.80;99.90
15231;DHT22;32569;51.762;8.564;2023-12-22T14:47:28;5.80;99.90
15231;DHT22;32569;51.762;8.564;2023-12-22T14:49:56;5.80;99.90
15231;DHT22;32569;51.762;8.564;2023-12-22T14:52:25;5.80;99.90
15231;DHT22;32569;51.762;8.564;2023-12-22T14:54:51;5.80;99.90
15231;DHT22;32569;51.762;8.564;2023-12-22T14:57:18;5.80;99.90
15231;DHT22;32569;51.762;8.564;2023-12-22T14:59:45;5.80;99.90
15231;DHT22;32569;51.762;8.564;2023-12-22T15:02:11;5.80;99.90
15231;DHT22;32569;51.762;8.564;2023-12-22T15:04:39;5.80;99.90
15231;DHT22;32569;51.762;8.564;2023-12-22T15:07:07;5.80;99.90
15231;DHT22;32569;51.762;8.564;2023-12-22T15:09:33;5.80;99.90
15231;DHT22;32569;51.762;8.564;2023-12-22T15:12:05;5.80;99.90
15231;DHT22;32569;51.762;8.564;2023-12-22T15:14:32;5.90;99.90
15231;DHT22;32569;51.762;8.564;2023-12-22T15:16:58;5.90;99.90
15231;DHT22;32569;51.762;8.564;2023-12-22T15:19:25;5.90;99.90
15231;DHT22;32569;51.762;8.564;2023-12-22T15:21:53;5.90;99.90
15231;DHT22;32569;51.762;8.564;2023-12-22T15:24:20;5.90;99.90
15231;DHT22;32569;51.762;8.564;2023-12-22T15:26:48;5.90;99.90
15231;DHT22;32569;51.762;8.564;2023-12-22T15:29:15;6.00;99.90
15231;DHT22;32569;51.762;8.564;2023-12-22T15:31:41;6.00;99.90
15231;DHT22;32569;51.762;8.564;2023-12-22T15:34:08;6.00;99.90
15231;DHT22;32569;51.762;8.564;2023-12-22T15:36:35;5.90;99.90
15231;DHT22;32569;51.762;8.564;2023-12-22T15:39:03;5.90;99.90
15231;DHT22;32569;51.762;8.564;2023-12-22T15:41:29;5.90;99.90
15231;DHT22;32569;51.762;8.564;2023-12-22T15:43:56;5.90;99.90
15231;DHT22;32569;51.762;8.564;2023-12-22T15:46:23;6.00;99.90
15231;DHT22;32569;51.762;8.564;2023-12-22T15:48:49;6.00;99.90